sensor_id;sensor_type;location;lat;lon;timestamp;P1;durP1;ratioP1;P2;durP2;ratioP2
15843;SDS011;50807;52.436;13.346;2022-07-01T00:00:15;6.13;;;5.63;;
15843;SDS011;50807;52.436;13.346;2022-07-01T00:00:47;5.17;;;4.77;;
15843;SDS011;50807;52.436;13.346;2022-07-01T00:01:20;5.93;;;5.47;;
15843;SDS011;50807;52.436;13.346;2022-07-01T00:01:50;5.60;;;5.20;;
15843;SDS011;50807;52.436;13.346;2022-07-01T00:02:22;6.27;;;5.77;;
15843;SDS011;50807;52.436;13.346;2022-07-01T00:02:53;5.73;;;5.33;;
15843;SDS011;50807;52.436;13.346;2022-07-01T00:03:24;5.57;;;5.27;;
15843;SDS011;50807;52.436;13.346;2022-07-01T00:03:56;6.37;;;5.77;;
15843;SDS011;50807;52.436;13.346;2022-07-01T00:04:27;6.03;;;5.53;;
15843;SDS011;50807;52.436;13.346;2022-07-01T00:04:57;5.70;;;5.30;;
15843;SDS011;50807;52.436;13.346;2022-07-01T00:05:29;5.80;;;5.40;;
15843;SDS011;50807;52.436;13.346;2022-07-01T00:06:00;5.90;;;5.50;;
15843;SDS011;50807;52.436;13.346;2022-07-01T00:06:32;6.50;;;6.07;;
15843;SDS011;50807;52.436;13.346;2022-07-01T00:07:03;6.13;;;5.63;;
15843;SDS011;50807;52.436;13.346;2022-07-01T00:07:34;6.67;;;6.10;;
15843;SDS011;50807;52.436;13.346;2022-07-01T00:08:05;6.57;;;6.07;;
15843;SDS011;50807;52.436;13.346;2022-07-01T00:08:36;4.73;;;4.43;;
15843;SDS011;50807;52.436;13.346;2022-07-01T00:09:07;6.30;;;5.80;;
15843;SDS011;50807;52.436;13.346;2022-07-01T00:09:39;5.87;;;5.47;;
15843;SDS011;50807;52.436;13.346;2022-07-01T00:10:09;5.93;;;5.47;;
15843;SDS011;50807;52.436;13.346;2022-07-01T00:10:40;6.20;;;5.70;;
15843;SDS011;50807;52.436;13.346;2022-07-01T00:11:12;6.07;;;5.67;;
15843;SDS011;50807;52.436;13.346;2022-07-01T00:11:43;5.77;;;5.27;;
15843;SDS011;50807;52.436;13.346;2022-07-01T00:12:13;5.67;;;5.27;;
15843;SDS011;50807;52.436;13.346;2022-07-01T00:12:45;5.50;;;5.10;;
15843;SDS011;50807;52.436;13.346;2022-07-01T00:13:16;5.47;;;5.07;;
15843;SDS011;50807;52.436;13.346;2022-07-01T00:13:47;5.93;;;5.43;;
15843;SDS011;50807;52.436;13.346;2022-07-01T00:14:19;6.27;;;5.73;;
15843;SDS011;50807;52.436;13.346;2022-07-01T00:14:52;5.93;;;5.33;;
15843;SDS011;50807;52.436;13.346;2022-07-01T00:15:23;6.27;;;5.77;;
15843;SDS011;50807;52.436;13.346;2022-07-01T00:15:55;5.87;;;5.47;;
15843;SDS011;50807;52.436;13.346;2022-07-01T00:16:27;5.80;;;5.40;;
15843;SDS011;50807;52.436;13.346;2022-07-01T00:16:58;5.63;;;5.23;;
15843;SDS011;50807;52.436;13.346;2022-07-01T00:17:30;6.60;;;6.10;;
15843;SDS011;50807;52.436;13.346;2022-07-01T00:18:00;6.10;;;5.60;;
15843;SDS011;50807;52.436;13.346;2022-07-01T00:18:32;6.03;;;5.47;;
15843;SDS011;50807;52.436;13.346;2022-07-01T00:19:04;5.80;;;5.40;;
15843;SDS011;50807;52.436;13.346;2022-07-01T00:19:35;5.63;;;5.23;;
15843;SDS011;50807;52.436;13.346;2022-07-01T00:20:06;5.47;;;5.07;;
15843;SDS011;50807;52.436;13.346;2022-07-01T00:20:39;6.03;;;5.63;;
15843;SDS011;50807;52.436;13.346;2022-07-01T00:21:10;5.87;;;5.43;;
15843;SDS011;50807;52.436;13.346;2022-07-01T00:21:42;6.07;;;5.67;;
15843;SDS011;50807;52.436;13.346;2022-07-01T00:22:14;6.23;;;5.73;;
15843;SDS011;50807;52.436;13.346;2022-07-01T00:22:44;6.27;;;5.77;;
15843;SDS011;50807;52.436;13.346;2022-07-01T00:23:15;6.40;;;5.97;;
15843;SDS011;50807;52.436;13.346;2022-07-01T00:23:46;6.53;;;5.93;;
15843;SDS011;50807;52.436;13.346;2022-07-01T00:24:18;6.57;;;6.07;;
15843;SDS011;50807;52.436;13.346;2022-07-01T00:24:49;6.30;;;5.90;;
15843;SDS011;50807;52.436;13.346;2022-07-01T00:25:20;6.67;;;6.03;;
15843;SDS011;50807;52.436;13.346;2022-07-01T00:25:52;6.50;;;6.00;;
15843;SDS011;50807;52.436;13.346;2022-07-01T00:26:23;6.07;;;5.67;;
15843;SDS011;50807;52.436;13.346;2022-07-01T00:26:54;5.87;;;5.37;;
15843;SDS011;50807;52.436;13.346;2022-07-01T00:27:25;6.10;;;5.70;;
15843;SDS011;50807;52.436;13.346;2022-07-01T00:27:57;6.37;;;5.97;;
15843;SDS011;50807;52.436;13.346;2022-07-01T00:28:28;6.50;;;6.00;;
15843;SDS011;50807;52.436;13.346;2022-07-01T00:28:59;6.07;;;5.67;;
15843;SDS011;50807;52.436;13.346;2022-07-01T00:29:31;6.27;;;5.87;;
15843;SDS011;50807;52.436;13.346;2022-07-01T00:30:03;6.30;;;5.90;;
15843;SDS011;50807;52.436;13.346;2022-07-01T00:30:35;6.77;;;6.27;;
15843;SDS011;50807;52.436;13.346;2022-07-01T00:31:08;7.03;;;6.53;;
15843;SDS011;50807;52.436;13.346;2022-07-01T00:31:40;6.13;;;5.63;;
15843;SDS011;50807;52.436;13.346;2022-07-01T00:32:11;5.90;;;5.50;;
15843;SDS011;50807;52.436;13.346;2022-07-01T00:32:43;5.87;;;5.47;;
15843;SDS011;50807;52.436;13.346;2022-07-01T00:33:14;6.50;;;6.03;;
15843;SDS011;50807;52.436;13.346;2022-07-01T00:33:45;6.23;;;5.70;;
15843;SDS011;50807;52.436;13.346;2022-07-01T00:34:16;6.20;;;5.70;;
15843;SDS011;50807;52.436;13.346;2022-07-01T00:34:47;6.17;;;5.77;;
15843;SDS011;50807;52.436;13.346;2022-07-01T00:35:18;6.37;;;5.87;;
15843;SDS011;50807;52.436;13.346;2022-07-01T00:35:49;6.50;;;5.93;;
15843;SDS011;50807;52.436;13.346;2022-07-01T00:36:21;6.23;;;5.83;;
15843;SDS011;50807;52.436;13.346;2022-07-01T00:36:52;6.27;;;5.67;;
15843;SDS011;50807;52.436;13.346;2022-07-01T00:37:24;6.03;;;5.63;;
15843;SDS011;50807;52.436;13.346;2022-07-01T00:37:55;6.43;;;5.93;;
15843;SDS011;50807;52.436;13.346;2022-07-01T00:38:28;9.67;;;6.37;;
15843;SDS011;50807;52.436;13.346;2022-07-01T00:38:59;6.67;;;6.10;;
15843;SDS011;50807;52.436;13.346;2022-07-01T00:39:30;6.43;;;5.93;;
15843;SDS011;50807;52.436;13.346;2022-07-01T00:40:04;6.77;;;6.27;;
15843;SDS011;50807;52.436;13.346;2022-07-01T00:40:37;6.40;;;5.90;;
15843;SDS011;50807;52.436;13.346;2022-07-01T00:41:09;6.10;;;5.70;;
15843;SDS011;50807;52.436;13.346;2022-07-01T00:41:40;5.83;;;5.33;;
15843;SDS011;50807;52.436;13.346;2022-07-01T00:42:10;6.37;;;5.77;;
15843;SDS011;50807;52.436;13.346;2022-07-01T00:42:42;6.47;;;5.97;;
15843;SDS011;50807;52.436;13.346;2022-07-01T00:43:14;6.03;;;5.43;;
15843;SDS011;50807;52.436;13.346;2022-07-01T00:43:44;7.00;;;6.50;;
15843;SDS011;50807;52.436;13.346;2022-07-01T00:44:16;6.87;;;6.37;;
15843;SDS011;50807;52.436;13.346;2022-07-01T00:44:48;6.70;;;6.20;;
15843;SDS011;50807;52.436;13.346;2022-07-01T00:45:18;6.17;;;5.70;;
15843;SDS011;50807;52.436;13.346;2022-07-01T00:45:51;6.00;;;5.60;;
15843;SDS011;50807;52.436;13.346;2022-07-01T00:46:22;6.37;;;5.87;;
15843;SDS011;50807;52.436;13.346;2022-07-01T00:46:56;6.70;;;6.20;;
15843;SDS011;50807;52.436;13.346;2022-07-01T00:47:30;6.63;;;6.13;;
15843;SDS011;50807;52.436;13.346;2022-07-01T00:48:01;7.30;;;6.63;;
15843;SDS011;50807;52.436;13.346;2022-07-01T00:48:32;7.10;;;6.50;;
15843;SDS011;50807;52.436;13.346;2022-07-01T00:49:07;6.30;;;5.87;;
15843;SDS011;50807;52.436;13.346;2022-07-01T00:49:38;6.90;;;6.40;;
15843;SDS011;50807;52.436;13.346;2022-07-01T00:50:10;6.80;;;6.30;;
15843;SDS011;50807;52.436;13.346;2022-07-01T00:50:44;6.27;;;5.77;;
15843;SDS011;50807;52.436;13.346;2022-07-01T00:51:16;7.43;;;6.73;;
15843;SDS011;50807;52.436;13.346;2022-07-01T00:51:48;7.57;;;6.87;;
15843;SDS011;50807;52.436;13.346;2022-07-01T00:52:19;7.13;;;6.63;;
15843;SDS011;50807;52.436;13.346;2022-07-01T00:52:51;7.20;;;6.70;;
15843;SDS011;50807;52.436;13.346;2022-07-01T00:53:22;6.73;;;6.20;;
15843;SDS011;50807;52.436;13.346;2022-07-01T00:53:54;7.40;;;6.90;;
15843;SDS011;50807;52.436;13.346;2022-07-01T00:54:28;7.10;;;6.60;;
15843;SDS011;50807;52.436;13.346;2022-07-01T00:55:02;6.93;;;6.43;;
15843;SDS011;50807;52.436;13.346;2022-07-01T00:55:35;6.57;;;6.07;;
15843;SDS011;50807;52.436;13.346;2022-07-01T00:56:06;6.83;;;6.33;;
15843;SDS011;50807;52.436;13.346;2022-07-01T00:56:38;6.90;;;6.40;;
15843;SDS011;50807;52.436;13.346;2022-07-01T00:57:10;7.17;;;6.67;;
15843;SDS011;50807;52.436;13.346;2022-07-01T00:57:42;6.73;;;6.23;;
15843;SDS011;50807;52.436;13.346;2022-07-01T00:58:14;6.67;;;6.07;;
15843;SDS011;50807;52.436;13.346;2022-07-01T00:58:46;6.73;;;6.23;;
15843;SDS011;50807;52.436;13.346;2022-07-01T00:59:17;7.50;;;6.80;;
15843;SDS011;50807;52.436;13.346;2022-07-01T00:59:48;6.73;;;6.23;;
15843;SDS011;50807;52.436;13.346;2022-07-01T01:00:19;6.57;;;6.17;;
15843;SDS011;50807;52.436;13.346;2022-07-01T01:00:51;6.80;;;6.30;;
15843;SDS011;50807;52.436;13.346;2022-07-01T01:01:22;7.00;;;6.50;;
15843;SDS011;50807;52.436;13.346;2022-07-01T01:01:55;7.60;;;7.00;;
15843;SDS011;50807;52.436;13.346;2022-07-01T01:02:26;7.07;;;6.57;;
15843;SDS011;50807;52.436;13.346;2022-07-01T01:02:57;6.53;;;6.03;;
15843;SDS011;50807;52.436;13.346;2022-07-01T01:03:29;6.87;;;6.37;;
15843;SDS011;50807;52.436;13.346;2022-07-01T01:04:00;7.10;;;6.60;;
15843;SDS011;50807;52.436;13.346;2022-07-01T01:04:31;7.17;;;6.63;;
15843;SDS011;50807;52.436;13.346;2022-07-01T01:05:04;5.10;;;4.70;;
15843;SDS011;50807;52.436;13.346;2022-07-01T01:05:37;7.70;;;7.10;;
15843;SDS011;50807;52.436;13.346;2022-07-01T01:06:11;6.97;;;6.47;;
15843;SDS011;50807;52.436;13.346;2022-07-01T01:06:43;7.50;;;6.93;;
15843;SDS011;50807;52.436;13.346;2022-07-01T01:07:14;7.77;;;7.10;;
15843;SDS011;50807;52.436;13.346;2022-07-01T01:07:46;8.10;;;7.50;;
15843;SDS011;50807;52.436;13.346;2022-07-01T01:08:19;7.67;;;7.07;;
15843;SDS011;50807;52.436;13.346;2022-07-01T01:08:50;7.30;;;6.70;;
15843;SDS011;50807;52.436;13.346;2022-07-01T01:09:20;7.10;;;6.60;;
15843;SDS011;50807;52.436;13.346;2022-07-01T01:09:52;7.83;;;7.23;;
15843;SDS011;50807;52.436;13.346;2022-07-01T01:10:23;7.43;;;6.83;;
15843;SDS011;50807;52.436;13.346;2022-07-01T01:10:56;7.23;;;6.73;;
15843;SDS011;50807;52.436;13.346;2022-07-01T01:11:28;7.57;;;7.07;;
15843;SDS011;50807;52.436;13.346;2022-07-01T01:12:00;7.47;;;6.93;;
15843;SDS011;50807;52.436;13.346;2022-07-01T01:12:31;8.00;;;7.13;;
15843;SDS011;50807;52.436;13.346;2022-07-01T01:13:04;8.17;;;7.57;;
15843;SDS011;50807;52.436;13.346;2022-07-01T01:13:35;7.53;;;6.93;;
15843;SDS011;50807;52.436;13.346;2022-07-01T01:14:05;7.70;;;7.20;;
15843;SDS011;50807;52.436;13.346;2022-07-01T01:14:44;7.83;;;7.33;;
15843;SDS011;50807;52.436;13.346;2022-07-01T01:15:18;7.47;;;6.90;;
15843;SDS011;50807;52.436;13.346;2022-07-01T01:15:49;7.43;;;6.90;;
15843;SDS011;50807;52.436;13.346;2022-07-01T01:16:22;7.50;;;7.00;;
15843;SDS011;50807;52.436;13.346;2022-07-01T01:16:57;7.67;;;7.07;;
15843;SDS011;50807;52.436;13.346;2022-07-01T01:17:27;8.03;;;7.43;;
15843;SDS011;50807;52.436;13.346;2022-07-01T01:17:59;7.87;;;6.97;;
15843;SDS011;50807;52.436;13.346;2022-07-01T01:18:30;7.90;;;7.30;;
15843;SDS011;50807;52.436;13.346;2022-07-01T01:19:03;7.53;;;6.93;;
15843;SDS011;50807;52.436;13.346;2022-07-01T01:19:36;6.37;;;5.87;;
15843;SDS011;50807;52.436;13.346;2022-07-01T01:20:07;6.97;;;6.47;;
15843;SDS011;50807;52.436;13.346;2022-07-01T01:20:40;8.03;;;7.40;;
15843;SDS011;50807;52.436;13.346;2022-07-01T01:21:12;7.60;;;7.00;;
15843;SDS011;50807;52.436;13.346;2022-07-01T01:21:42;7.70;;;7.10;;
15843;SDS011;50807;52.436;13.346;2022-07-01T01:22:14;7.07;;;6.57;;
15843;SDS011;50807;52.436;13.346;2022-07-01T01:22:47;7.53;;;7.03;;
15843;SDS011;50807;52.436;13.346;2022-07-01T01:23:18;7.80;;;7.30;;
15843;SDS011;50807;52.436;13.346;2022-07-01T01:23:49;7.47;;;6.87;;
15843;SDS011;50807;52.436;13.346;2022-07-01T01:24:21;7.63;;;7.03;;
15843;SDS011;50807;52.436;13.346;2022-07-01T01:24:51;7.93;;;7.33;;
15843;SDS011;50807;52.436;13.346;2022-07-01T01:25:22;8.07;;;7.47;;
15843;SDS011;50807;52.436;13.346;2022-07-01T01:25:55;8.23;;;7.57;;
15843;SDS011;50807;52.436;13.346;2022-07-01T01:26:25;8.07;;;7.47;;
15843;SDS011;50807;52.436;13.346;2022-07-01T01:26:57;7.87;;;7.33;;
15843;SDS011;50807;52.436;13.346;2022-07-01T01:27:28;8.27;;;7.67;;
15843;SDS011;50807;52.436;13.346;2022-07-01T01:27:59;8.23;;;7.57;;
15843;SDS011;50807;52.436;13.346;2022-07-01T01:28:31;7.73;;;7.13;;
15843;SDS011;50807;52.436;13.346;2022-07-01T01:29:02;8.23;;;7.63;;
15843;SDS011;50807;52.436;13.346;2022-07-01T01:29:34;7.73;;;7.23;;
15843;SDS011;50807;52.436;13.346;2022-07-01T01:30:08;7.50;;;7.00;;
15843;SDS011;50807;52.436;13.346;2022-07-01T01:30:41;7.93;;;7.23;;
15843;SDS011;50807;52.436;13.346;2022-07-01T01:31:12;7.90;;;7.30;;
15843;SDS011;50807;52.436;13.346;2022-07-01T01:31:45;7.20;;;6.70;;
15843;SDS011;50807;52.436;13.346;2022-07-01T01:32:16;8.30;;;7.70;;
15843;SDS011;50807;52.436;13.346;2022-07-01T01:32:47;8.10;;;7.50;;
15843;SDS011;50807;52.436;13.346;2022-07-01T01:33:19;7.47;;;6.97;;
15843;SDS011;50807;52.436;13.346;2022-07-01T01:33:50;8.07;;;7.37;;
15843;SDS011;50807;52.436;13.346;2022-07-01T01:34:21;8.00;;;7.40;;
15843;SDS011;50807;52.436;13.346;2022-07-01T01:34:53;8.00;;;7.40;;
15843;SDS011;50807;52.436;13.346;2022-07-01T01:35:23;7.80;;;7.20;;
15843;SDS011;50807;52.436;13.346;2022-07-01T01:35:56;8.37;;;7.77;;
15843;SDS011;50807;52.436;13.346;2022-07-01T01:36:27;7.83;;;7.27;;
15843;SDS011;50807;52.436;13.346;2022-07-01T01:36:58;8.57;;;7.87;;
15843;SDS011;50807;52.436;13.346;2022-07-01T01:37:29;8.77;;;8.07;;
15843;SDS011;50807;52.436;13.346;2022-07-01T01:38:01;8.57;;;7.87;;
15843;SDS011;50807;52.436;13.346;2022-07-01T01:38:32;8.07;;;7.47;;
15843;SDS011;50807;52.436;13.346;2022-07-01T01:39:04;7.50;;;6.90;;
15843;SDS011;50807;52.436;13.346;2022-07-01T01:39:39;8.50;;;7.90;;
15843;SDS011;50807;52.436;13.346;2022-07-01T01:40:10;7.97;;;7.37;;
15843;SDS011;50807;52.436;13.346;2022-07-01T01:40:43;8.03;;;7.43;;
15843;SDS011;50807;52.436;13.346;2022-07-01T01:41:15;9.00;;;8.30;;
15843;SDS011;50807;52.436;13.346;2022-07-01T01:41:46;8.93;;;8.23;;
15843;SDS011;50807;52.436;13.346;2022-07-01T01:42:17;6.17;;;5.70;;
15843;SDS011;50807;52.436;13.346;2022-07-01T01:42:49;7.97;;;7.30;;
15843;SDS011;50807;52.436;13.346;2022-07-01T01:43:19;8.20;;;7.60;;
15843;SDS011;50807;52.436;13.346;2022-07-01T01:43:50;8.37;;;7.67;;
15843;SDS011;50807;52.436;13.346;2022-07-01T01:44:22;8.67;;;8.03;;
15843;SDS011;50807;52.436;13.346;2022-07-01T01:44:52;7.67;;;7.07;;
15843;SDS011;50807;52.436;13.346;2022-07-01T01:45:24;8.63;;;8.03;;
15843;SDS011;50807;52.436;13.346;2022-07-01T01:45:56;8.67;;;7.97;;
15843;SDS011;50807;52.436;13.346;2022-07-01T01:46:27;8.57;;;7.87;;
15843;SDS011;50807;52.436;13.346;2022-07-01T01:46:59;8.13;;;7.53;;
15843;SDS011;50807;52.436;13.346;2022-07-01T01:47:31;7.43;;;6.93;;
15843;SDS011;50807;52.436;13.346;2022-07-01T01:48:01;8.00;;;7.40;;
15843;SDS011;50807;52.436;13.346;2022-07-01T01:48:32;8.03;;;7.43;;
15843;SDS011;50807;52.436;13.346;2022-07-01T01:49:03;8.13;;;7.53;;
15843;SDS011;50807;52.436;13.346;2022-07-01T01:49:36;8.00;;;7.40;;
15843;SDS011;50807;52.436;13.346;2022-07-01T01:50:08;8.73;;;8.03;;
15843;SDS011;50807;52.436;13.346;2022-07-01T01:50:41;8.50;;;7.90;;
15843;SDS011;50807;52.436;13.346;2022-07-01T01:51:14;8.43;;;7.83;;
15843;SDS011;50807;52.436;13.346;2022-07-01T01:51:44;8.90;;;8.17;;
15843;SDS011;50807;52.436;13.346;2022-07-01T01:52:15;8.60;;;7.97;;
15843;SDS011;50807;52.436;13.346;2022-07-01T01:52:47;7.80;;;7.20;;
15843;SDS011;50807;52.436;13.346;2022-07-01T01:53:18;9.20;;;8.40;;
15843;SDS011;50807;52.436;13.346;2022-07-01T01:53:48;9.17;;;8.47;;
15843;SDS011;50807;52.436;13.346;2022-07-01T01:54:19;8.37;;;7.77;;
15843;SDS011;50807;52.436;13.346;2022-07-01T01:54:51;9.00;;;8.30;;
15843;SDS011;50807;52.436;13.346;2022-07-01T01:55:22;8.73;;;8.03;;
15843;SDS011;50807;52.436;13.346;2022-07-01T01:55:53;8.80;;;8.10;;
15843;SDS011;50807;52.436;13.346;2022-07-01T01:56:25;9.67;;;8.97;;
15843;SDS011;50807;52.436;13.346;2022-07-01T01:56:56;8.63;;;7.93;;
15843;SDS011;50807;52.436;13.346;2022-07-01T01:57:27;8.53;;;7.83;;
15843;SDS011;50807;52.436;13.346;2022-07-01T01:57:58;9.30;;;8.63;;
15843;SDS011;50807;52.436;13.346;2022-07-01T01:58:29;8.63;;;8.03;;
15843;SDS011;50807;52.436;13.346;2022-07-01T01:59:00;8.73;;;8.07;;
15843;SDS011;50807;52.436;13.346;2022-07-01T01:59:31;8.60;;;8.00;;
15843;SDS011;50807;52.436;13.346;2022-07-01T02:00:03;9.53;;;8.73;;
15843;SDS011;50807;52.436;13.346;2022-07-01T02:00:35;8.43;;;7.77;;
15843;SDS011;50807;52.436;13.346;2022-07-01T02:01:07;9.33;;;8.63;;
15843;SDS011;50807;52.436;13.346;2022-07-01T02:01:39;8.83;;;8.13;;
15843;SDS011;50807;52.436;13.346;2022-07-01T02:02:10;8.80;;;8.20;;
15843;SDS011;50807;52.436;13.346;2022-07-01T02:02:40;9.40;;;8.70;;
15843;SDS011;50807;52.436;13.346;2022-07-01T02:03:12;9.07;;;8.47;;
15843;SDS011;50807;52.436;13.346;2022-07-01T02:03:44;8.70;;;8.10;;
15843;SDS011;50807;52.436;13.346;2022-07-01T02:04:18;9.23;;;8.53;;
15843;SDS011;50807;52.436;13.346;2022-07-01T02:04:50;9.60;;;8.80;;
15843;SDS011;50807;52.436;13.346;2022-07-01T02:05:21;10.00;;;9.20;;
15843;SDS011;50807;52.436;13.346;2022-07-01T02:05:52;9.30;;;8.60;;
15843;SDS011;50807;52.436;13.346;2022-07-01T02:06:25;9.63;;;8.90;;
15843;SDS011;50807;52.436;13.346;2022-07-01T02:06:56;8.50;;;7.90;;
15843;SDS011;50807;52.436;13.346;2022-07-01T02:07:27;9.17;;;8.47;;
15843;SDS011;50807;52.436;13.346;2022-07-01T02:07:59;9.13;;;8.43;;
15843;SDS011;50807;52.436;13.346;2022-07-01T02:08:29;9.67;;;8.97;;
15843;SDS011;50807;52.436;13.346;2022-07-01T02:09:01;8.53;;;7.93;;
15843;SDS011;50807;52.436;13.346;2022-07-01T02:09:34;9.17;;;8.50;;
15843;SDS011;50807;52.436;13.346;2022-07-01T02:10:05;9.43;;;8.80;;
15843;SDS011;50807;52.436;13.346;2022-07-01T02:10:37;10.00;;;9.20;;
15843;SDS011;50807;52.436;13.346;2022-07-01T02:11:09;9.83;;;9.13;;
15843;SDS011;50807;52.436;13.346;2022-07-01T02:11:39;9.20;;;8.50;;
15843;SDS011;50807;52.436;13.346;2022-07-01T02:12:10;8.77;;;8.07;;
15843;SDS011;50807;52.436;13.346;2022-07-01T02:12:42;9.03;;;8.33;;
15843;SDS011;50807;52.436;13.346;2022-07-01T02:13:13;8.83;;;8.17;;
15843;SDS011;50807;52.436;13.346;2022-07-01T02:13:44;9.00;;;8.40;;
15843;SDS011;50807;52.436;13.346;2022-07-01T02:14:16;9.27;;;8.57;;
15843;SDS011;50807;52.436;13.346;2022-07-01T02:14:46;8.80;;;8.10;;
15843;SDS011;50807;52.436;13.346;2022-07-01T02:15:17;9.63;;;8.93;;
15843;SDS011;50807;52.436;13.346;2022-07-01T02:15:49;7.17;;;6.63;;
15843;SDS011;50807;52.436;13.346;2022-07-01T02:16:20;9.20;;;8.53;;
15843;SDS011;50807;52.436;13.346;2022-07-01T02:16:51;9.90;;;9.10;;
15843;SDS011;50807;52.436;13.346;2022-07-01T02:17:23;8.57;;;7.97;;
15843;SDS011;50807;52.436;13.346;2022-07-01T02:17:55;10.10;;;9.30;;
15843;SDS011;50807;52.436;13.346;2022-07-01T02:18:27;9.10;;;8.40;;
15843;SDS011;50807;52.436;13.346;2022-07-01T02:19:00;8.73;;;8.13;;
15843;SDS011;50807;52.436;13.346;2022-07-01T02:19:30;9.57;;;8.87;;
15843;SDS011;50807;52.436;13.346;2022-07-01T02:20:01;9.60;;;8.90;;
15843;SDS011;50807;52.436;13.346;2022-07-01T02:20:34;10.10;;;9.30;;
15843;SDS011;50807;52.436;13.346;2022-07-01T02:21:04;9.00;;;8.30;;
15843;SDS011;50807;52.436;13.346;2022-07-01T02:21:37;10.00;;;9.27;;
15843;SDS011;50807;52.436;13.346;2022-07-01T02:22:08;9.10;;;8.40;;
15843;SDS011;50807;52.436;13.346;2022-07-01T02:22:39;9.50;;;8.80;;
15843;SDS011;50807;52.436;13.346;2022-07-01T02:23:10;9.93;;;9.17;;
15843;SDS011;50807;52.436;13.346;2022-07-01T02:23:42;9.93;;;9.23;;
15843;SDS011;50807;52.436;13.346;2022-07-01T02:24:13;9.67;;;8.97;;
15843;SDS011;50807;52.436;13.346;2022-07-01T02:24:43;9.50;;;8.80;;
15843;SDS011;50807;52.436;13.346;2022-07-01T02:25:15;10.57;;;9.60;;
15843;SDS011;50807;52.436;13.346;2022-07-01T02:25:46;10.10;;;9.40;;
15843;SDS011;50807;52.436;13.346;2022-07-01T02:26:17;10.00;;;9.27;;
15843;SDS011;50807;52.436;13.346;2022-07-01T02:26:49;10.37;;;9.57;;
15843;SDS011;50807;52.436;13.346;2022-07-01T02:27:20;11.40;;;10.60;;
15843;SDS011;50807;52.436;13.346;2022-07-01T02:27:51;8.33;;;7.73;;
15843;SDS011;50807;52.436;13.346;2022-07-01T02:28:23;9.40;;;8.70;;
15843;SDS011;50807;52.436;13.346;2022-07-01T02:28:53;9.50;;;8.80;;
15843;SDS011;50807;52.436;13.346;2022-07-01T02:29:24;9.20;;;8.50;;
15843;SDS011;50807;52.436;13.346;2022-07-01T02:29:56;10.37;;;9.57;;
15843;SDS011;50807;52.436;13.346;2022-07-01T02:30:27;10.73;;;9.87;;
15843;SDS011;50807;52.436;13.346;2022-07-01T02:30:59;11.20;;;10.30;;
15843;SDS011;50807;52.436;13.346;2022-07-01T02:31:32;9.93;;;9.03;;
15843;SDS011;50807;52.436;13.346;2022-07-01T02:32:03;10.07;;;9.27;;
15843;SDS011;50807;52.436;13.346;2022-07-01T02:32:35;10.43;;;9.53;;
15843;SDS011;50807;52.436;13.346;2022-07-01T02:33:07;10.73;;;9.83;;
15843;SDS011;50807;52.436;13.346;2022-07-01T02:33:39;10.33;;;9.53;;
15843;SDS011;50807;52.436;13.346;2022-07-01T02:34:10;9.63;;;8.83;;
15843;SDS011;50807;52.436;13.346;2022-07-01T02:34:41;10.77;;;9.87;;
15843;SDS011;50807;52.436;13.346;2022-07-01T02:35:12;11.17;;;10.27;;
15843;SDS011;50807;52.436;13.346;2022-07-01T02:35:43;11.33;;;10.43;;
15843;SDS011;50807;52.436;13.346;2022-07-01T02:36:15;10.87;;;9.97;;
15843;SDS011;50807;52.436;13.346;2022-07-01T02:36:47;10.67;;;9.87;;
15843;SDS011;50807;52.436;13.346;2022-07-01T02:37:18;10.03;;;9.33;;
15843;SDS011;50807;52.436;13.346;2022-07-01T02:37:50;11.63;;;10.73;;
15843;SDS011;50807;52.436;13.346;2022-07-01T02:38:21;12.73;;;11.63;;
15843;SDS011;50807;52.436;13.346;2022-07-01T02:38:52;12.20;;;11.23;;
15843;SDS011;50807;52.436;13.346;2022-07-01T02:39:23;13.53;;;12.50;;
15843;SDS011;50807;52.436;13.346;2022-07-01T02:39:54;12.00;;;11.03;;
15843;SDS011;50807;52.436;13.346;2022-07-01T02:40:25;12.70;;;11.57;;
15843;SDS011;50807;52.436;13.346;2022-07-01T02:40:56;11.87;;;10.73;;
15843;SDS011;50807;52.436;13.346;2022-07-01T02:41:28;11.20;;;10.30;;
15843;SDS011;50807;52.436;13.346;2022-07-01T02:41:59;11.23;;;10.23;;
15843;SDS011;50807;52.436;13.346;2022-07-01T02:42:48;11.70;;;10.70;;
15843;SDS011;50807;52.436;13.346;2022-07-01T02:43:20;13.60;;;12.47;;
15843;SDS011;50807;52.436;13.346;2022-07-01T02:43:51;13.07;;;11.97;;
15843;SDS011;50807;52.436;13.346;2022-07-01T02:44:22;12.07;;;11.07;;
15843;SDS011;50807;52.436;13.346;2022-07-01T02:44:54;13.70;;;12.50;;
15843;SDS011;50807;52.436;13.346;2022-07-01T02:45:25;13.43;;;12.33;;
15843;SDS011;50807;52.436;13.346;2022-07-01T02:45:57;14.00;;;12.90;;
15843;SDS011;50807;52.436;13.346;2022-07-01T02:46:28;13.83;;;12.63;;
15843;SDS011;50807;52.436;13.346;2022-07-01T02:46:59;14.30;;;13.10;;
15843;SDS011;50807;52.436;13.346;2022-07-01T02:47:31;13.87;;;12.73;;
15843;SDS011;50807;52.436;13.346;2022-07-01T02:48:03;14.00;;;12.80;;
15843;SDS011;50807;52.436;13.346;2022-07-01T02:48:35;14.70;;;13.50;;
15843;SDS011;50807;52.436;13.346;2022-07-01T02:49:06;14.73;;;13.33;;
15843;SDS011;50807;52.436;13.346;2022-07-01T02:49:37;14.07;;;12.97;;
15843;SDS011;50807;52.436;13.346;2022-07-01T02:50:10;13.70;;;12.50;;
15843;SDS011;50807;52.436;13.346;2022-07-01T02:50:43;13.87;;;12.67;;
15843;SDS011;50807;52.436;13.346;2022-07-01T02:51:14;10.50;;;9.60;;
15843;SDS011;50807;52.436;13.346;2022-07-01T02:51:45;14.77;;;13.57;;
15843;SDS011;50807;52.436;13.346;2022-07-01T02:52:18;13.53;;;12.43;;
15843;SDS011;50807;52.436;13.346;2022-07-01T02:52:48;13.67;;;12.47;;
15843;SDS011;50807;52.436;13.346;2022-07-01T02:53:19;14.50;;;13.20;;
15843;SDS011;50807;52.436;13.346;2022-07-01T02:53:51;13.17;;;12.07;;
15843;SDS011;50807;52.436;13.346;2022-07-01T02:54:22;13.27;;;12.27;;
15843;SDS011;50807;52.436;13.346;2022-07-01T02:54:52;13.23;;;12.13;;
15843;SDS011;50807;52.436;13.346;2022-07-01T02:55:25;12.77;;;11.77;;
15843;SDS011;50807;52.436;13.346;2022-07-01T02:55:56;14.23;;;13.03;;
15843;SDS011;50807;52.436;13.346;2022-07-01T02:56:28;13.70;;;12.50;;
15843;SDS011;50807;52.436;13.346;2022-07-01T02:56:58;14.40;;;13.20;;
15843;SDS011;50807;52.436;13.346;2022-07-01T02:57:29;10.73;;;9.83;;
15843;SDS011;50807;52.436;13.346;2022-07-01T02:58:01;13.67;;;12.43;;
15843;SDS011;50807;52.436;13.346;2022-07-01T02:58:34;13.77;;;12.77;;
15843;SDS011;50807;52.436;13.346;2022-07-01T02:59:05;12.97;;;11.87;;
15843;SDS011;50807;52.436;13.346;2022-07-01T02:59:36;14.47;;;13.10;;
15843;SDS011;50807;52.436;13.346;2022-07-01T03:00:08;13.73;;;12.53;;
15843;SDS011;50807;52.436;13.346;2022-07-01T03:00:41;14.30;;;13.10;;
15843;SDS011;50807;52.436;13.346;2022-07-01T03:01:13;14.00;;;12.90;;
15843;SDS011;50807;52.436;13.346;2022-07-01T03:01:44;13.47;;;12.43;;
15843;SDS011;50807;52.436;13.346;2022-07-01T03:02:14;12.70;;;11.70;;
15843;SDS011;50807;52.436;13.346;2022-07-01T03:02:45;13.03;;;12.03;;
15843;SDS011;50807;52.436;13.346;2022-07-01T03:03:18;13.53;;;12.33;;
15843;SDS011;50807;52.436;13.346;2022-07-01T03:03:49;12.43;;;11.43;;
15843;SDS011;50807;52.436;13.346;2022-07-01T03:04:20;13.27;;;12.17;;
15843;SDS011;50807;52.436;13.346;2022-07-01T03:04:52;12.83;;;11.83;;
15843;SDS011;50807;52.436;13.346;2022-07-01T03:05:23;12.17;;;11.17;;
15843;SDS011;50807;52.436;13.346;2022-07-01T03:05:55;12.37;;;11.37;;
15843;SDS011;50807;52.436;13.346;2022-07-01T03:06:27;12.33;;;11.33;;